Lake Helen, Florida
Current Conditions -  °F | °C
As of 8:53 AM on Friday 19 Dec 2014 (Local Time) from KSFB Reporting Station
Clear Clear  
Wind Chill: 56°   Ceiling: Unl
Heat Index: 56°   Visibility: 10mi
Dew Point: 50°   Wind: 5mph
Humidity: 80%   Direction: 330°NNW
Pressure: 30.15"   Gusts: NA
Location:  28.98°N, 81.23°W
Report Text: KSFB 191353Z 33004KT 10SM CLR 13/10 A3015 RMK AO2 SLP210 T01330100
Loading
Personal Weather Stations






























Interactive Weather Map New forecast layout! Learn more

10-Day Weather Forecast

Advertisements
Track Severe Weather on mobile